Map

Track Data

SID SEASON NUMBER BASIN SUBBASIN NAME ISO_TIME NATURE LAT LON WMO_WIND WMO_PRES WMO_AGENCY TRACK_TYPE DIST2LAND LANDFALL IFLAG USA_AGENCY USA_ATCF_ID USA_LAT USA_LON USA_RECORD USA_STATUS USA_WIND USA_PRES USA_SSHS USA_R34_NE USA_R34_SE USA_R34_SW USA_R34_NW USA_R50_NE USA_R50_SE USA_R50_SW USA_R50_NW USA_R64_NE USA_R64_SE USA_R64_SW USA_R64_NW USA_POCI USA_ROCI USA_RMW USA_EYE TOKYO_LAT TOKYO_LON TOKYO_GRADE TOKYO_WIND TOKYO_PRES TOKYO_R50_DIR TOKYO_R50_LONG TOKYO_R50_SHORT TOKYO_R30_DIR TOKYO_R30_LONG TOKYO_R30_SHORT TOKYO_LAND CMA_LAT CMA_LON CMA_CAT CMA_WIND CMA_PRES HKO_LAT HKO_LON HKO_CAT HKO_WIND HKO_PRES NEWDELHI_LAT NEWDELHI_LON NEWDELHI_GRADE NEWDELHI_WIND NEWDELHI_PRES NEWDELHI_CI NEWDELHI_DP NEWDELHI_POCI REUNION_LAT REUNION_LON REUNION_TYPE REUNION_WIND REUNION_PRES REUNION_TNUM REUNION_CI REUNION_RMW REUNION_R34_NE REUNION_R34_SE REUNION_R34_SW REUNION_R34_NW REUNION_R50_NE REUNION_R50_SE REUNION_R50_SW REUNION_R50_NW REUNION_R64_NE REUNION_R64_SE REUNION_R64_SW REUNION_R64_NW BOM_LAT BOM_LON BOM_TYPE BOM_WIND BOM_PRES BOM_TNUM BOM_CI BOM_RMW BOM_R34_NE BOM_R34_SE BOM_R34_SW BOM_R34_NW BOM_R50_NE BOM_R50_SE BOM_R50_SW BOM_R50_NW BOM_R64_NE BOM_R64_SE BOM_R64_SW BOM_R64_NW BOM_ROCI BOM_POCI BOM_EYE BOM_POS_METHOD BOM_PRES_METHOD NADI_LAT NADI_LON NADI_CAT NADI_WIND NADI_PRES WELLINGTON_LAT WELLINGTON_LON WELLINGTON_WIND WELLINGTON_PRES DS824_LAT DS824_LON DS824_STAGE DS824_WIND DS824_PRES TD9636_LAT TD9636_LON TD9636_STAGE TD9636_WIND TD9636_PRES TD9635_LAT TD9635_LON TD9635_WIND TD9635_PRES TD9635_ROCI NEUMANN_LAT NEUMANN_LON NEUMANN_CLASS NEUMANN_WIND NEUMANN_PRES MLC_LAT MLC_LON MLC_CLASS MLC_WIND MLC_PRES USA_GUST BOM_GUST BOM_GUST_PER REUNION_GUST REUNION_GUST_PER USA_SEAHGT USA_SEARAD_NE USA_SEARAD_SE USA_SEARAD_SW USA_SEARAD_NW STORM_SPEED STORM_DIR
1976211N28308 1976 81 NA NA ANNA 1976-07-28 18:00:00 SS 28.0000 -52.3000 20 1015 hurdat_atl main 1728 1728 O_____________ hurdat_atl AL061976 28.0000 -52.3000 SD 20 1015 -2 9 90
1976211N28308 1976 81 NA NA ANNA 1976-07-28 21:00:00 SS 28.0004 -51.8000 main 1769 1769 P_____________ AL061976 28.0004 -51.8000 SD 20 -2 9 90
1976211N28308 1976 81 NA NA ANNA 1976-07-29 00:00:00 SS 28.0000 -51.3000 20 hurdat_atl main 1809 1809 O_____________ hurdat_atl AL061976 28.0000 -51.3000 SD 20 -2 9 90
1976211N28308 1976 81 NA NA ANNA 1976-07-29 03:00:00 SS 27.9998 -50.8000 main 1851 1851 P_____________ AL061976 27.9998 -50.8000 SD 20 -2 9 90
1976211N28308 1976 81 NA NA ANNA 1976-07-29 06:00:00 SS 28.0000 -50.3000 20 hurdat_atl main 1892 1892 O_____________ hurdat_atl AL061976 28.0000 -50.3000 SD 20 -2 9 90
1976211N28308 1976 81 NA NA ANNA 1976-07-29 09:00:00 SS 27.9996 -49.8150 main 1935 1935 P_____________ AL061976 27.9996 -49.8150 SD 22 -2 9 90
1976211N28308 1976 81 NA NA ANNA 1976-07-29 12:00:00 SS 28.0000 -49.3000 25 1012 hurdat_atl main 1977 1977 O_____________ hurdat_atl AL061976 28.0000 -49.3000 SD 25 1012 -2 9 92
1976211N28308 1976 81 NA NA ANNA 1976-07-29 15:00:00 SS 27.9757 -48.8117 main 2020 2020 P_____________ AL061976 27.9757 -48.8117 SD 25 1010 -2 11 90
1976211N28308 1976 81 NA NA ANNA 1976-07-29 18:00:00 SS 28.0000 -48.1000 25 hurdat_atl main 2081 2081 I_____________ hurdat_atl AL061976 28.0000 -48.1000 SD 25 1008 -2 16 88
1976211N28308 1976 81 NA NA ANNA 1976-07-29 21:00:00 SS 28.0360 -47.0254 main 2140 2134 P_____________ AL061976 28.0360 -47.0254 SD 27 1006 -2 22 82
1976211N28308 1976 81 NA NA ANNA 1976-07-30 00:00:00 SS 28.3000 -45.6000 30 1005 hurdat_atl main 2142 2115 O_____________ hurdat_atl AL061976 28.3000 -45.6000 SD 30 1005 -2 30 70
1976211N28308 1976 81 NA NA ANNA 1976-07-30 03:00:00 SS 29.0545 -43.7788 main 2111 2099 P_____________ AL061976 29.0545 -43.7788 SD 32 1002 -2 35 65
1976211N28308 1976 81 NA NA ANNA 1976-07-30 06:00:00 SS 29.8000 -42.0000 35 999 hurdat_atl main 2104 2102 O_____________ hurdat_atl AL061976 29.8000 -42.0000 SS 35 999 -2 27 69
1976211N28308 1976 81 NA NA ANNA 1976-07-30 09:00:00 SS 30.0280 -40.8400 main 2134 2132 P_____________ AL061976 30.0280 -40.8400 SS 37 -2 18 81
1976211N28308 1976 81 NA NA ANNA 1976-07-30 12:00:00 SS 30.1000 -39.9000 40 hurdat_atl main 2164 2148 O_____________ hurdat_atl AL061976 30.1000 -39.9000 SS 40 -2 18 82
1976211N28308 1976 81 NA NA ANNA 1976-07-30 15:00:00 SS 30.2621 -38.7915 main 2138 2043 P_____________ AL061976 30.2621 -38.7915 SS 40 -2 19 78
1976211N28308 1976 81 NA NA ANNA 1976-07-30 18:00:00 TS 30.5000 -37.7000 40 hurdat_atl main 2033 1940 O_____________ hurdat_atl AL061976 30.5000 -37.7000 TS 40 0 19 71
1976211N28308 1976 81 NA NA ANNA 1976-07-30 21:00:00 TS 30.8837 -36.6929 main 1940 1858 P_____________ AL061976 30.8837 -36.6929 TS 40 0 19 65
1976211N28308 1976 81 NA NA ANNA 1976-07-31 00:00:00 TS 31.3000 -35.7000 40 hurdat_atl main 1849 1758 O_____________ hurdat_atl AL061976 31.3000 -35.7000 TS 40 0 19 67
1976211N28308 1976 81 NA NA ANNA 1976-07-31 03:00:00 TS 31.6143 -34.6564 main 1758 1670 P_____________ AL061976 31.6143 -34.6564 TS 40 0 19 71
1976211N28308 1976 81 NA NA ANNA 1976-07-31 06:00:00 TS 31.9000 -33.6000 40 hurdat_atl main 1661 1574 O_____________ hurdat_atl AL061976 31.9000 -33.6000 TS 40 0 19 72
1976211N28308 1976 81 NA NA ANNA 1976-07-31 09:00:00 TS 32.1916 -32.5490 main 1565 1491 P_____________ AL061976 32.1916 -32.5490 TS 40 0 19 71
1976211N28308 1976 81 NA NA ANNA 1976-07-31 12:00:00 TS 32.5000 -31.5000 40 hurdat_atl main 1482 1401 O_____________ hurdat_atl AL061976 32.5000 -31.5000 TS 40 0 19 70
1976211N28308 1976 81 NA NA ANNA 1976-07-31 15:00:00 TS 32.8412 -30.4642 main 1401 1328 P_____________ AL061976 32.8412 -30.4642 TS 40 0 19 68
1976211N28308 1976 81 NA NA ANNA 1976-07-31 18:00:00 TS 33.2000 -29.4000 40 hurdat_atl main 1319 1238 O_____________ hurdat_atl AL061976 33.2000 -29.4000 TS 40 0 20 70
1976211N28308 1976 81 NA NA ANNA 1976-07-31 21:00:00 TS 33.5196 -28.2556 main 1238 1168 P_____________ AL061976 33.5196 -28.2556 TS 37 0 20 70
1976211N28308 1976 81 NA NA ANNA 1976-08-01 00:00:00 TS 33.9000 -27.1000 35 hurdat_atl main 1160 1105 O_____________ hurdat_atl AL061976 33.9000 -27.1000 TS 35 0 21 65
1976211N28308 1976 81 NA NA ANNA 1976-08-01 03:00:00 TS 34.4048 -25.9549 main 1105 1068 P_____________ AL061976 34.4048 -25.9549 TS 35 0 21 59
1976211N28308 1976 81 NA NA ANNA 1976-08-01 06:00:00 TS 35.0000 -24.9000 35 hurdat_atl main 1069 1054 O_____________ hurdat_atl AL061976 35.0000 -24.9000 TS 35 0 20 53
1976211N28308 1976 81 NA NA ANNA 1976-08-01 09:00:00 TS 35.6190 -23.9885 main 1058 1055 P_____________ AL061976 35.6190 -23.9885 TS 35 0 19 47
1976211N28308 1976 81 NA NA ANNA 1976-08-01 12:00:00 ET 36.3000 -23.2000 35 hurdat_atl main 1074 1074 O_____________ hurdat_atl AL061976 36.3000 -23.2000 EX 35 -4 19 41
1976211N28308 1976 81 NA NA ANNA 1976-08-01 15:00:00 ET 37.0422 -22.4398 main 1100 1075 P_____________ AL061976 37.0422 -22.4398 EX 35 -4 19 37
1976211N28308 1976 81 NA NA ANNA 1976-08-01 18:00:00 ET 37.8000 -21.8000 35 hurdat_atl main 1075 1021 O_____________ hurdat_atl AL061976 37.8000 -21.8000 EX 35 -4 17 32
1976211N28308 1976 81 NA NA ANNA 1976-08-01 21:00:00 ET 38.5070 -21.2886 main 1021 982 P_____________ AL061976 38.5070 -21.2886 EX 35 -4 16 27
1976211N28308 1976 81 NA NA ANNA 1976-08-02 00:00:00 ET 39.2000 -20.9000 35 hurdat_atl main 982 950 O_____________ hurdat_atl AL061976 39.2000 -20.9000 EX 35 -4 15 23
1976211N28308 1976 81 NA NA ANNA 1976-08-02 03:00:00 ET 39.8924 -20.5181 main 950 938 P_____________ AL061976 39.8924 -20.5181 EX 37 -4 15 18
1976211N28308 1976 81 NA NA ANNA 1976-08-02 06:00:00 ET 40.6000 -20.3000 40 hurdat_atl main 942 918 O_____________ hurdat_atl AL061976 40.6000 -20.3000 EX 40 -4 15 6
1976211N28308 1976 81 NA NA ANNA 1976-08-02 09:00:00 ET 41.4098 -20.3158 main 918 913 P_____________ AL061976 41.4098 -20.3158 EX 42 -4 15 354
1976211N28308 1976 81 NA NA ANNA 1976-08-02 12:00:00 ET 42.1000 -20.5000 45 hurdat_atl main 918 916 O_____________ hurdat_atl AL061976 42.1000 -20.5000 EX 45 -4 11 346
1976211N28308 1976 81 NA NA ANNA 1976-08-02 15:00:00 ET 42.5048 -20.6975 main 928 927 P_____________ AL061976 42.5048 -20.6975 EX 42 -4 7 328
1976211N28308 1976 81 NA NA ANNA 1976-08-02 18:00:00 ET 42.7000 -21.0000 40 1004 hurdat_atl main 950 950 O_____________ hurdat_atl AL061976 42.7000 -21.0000 EX 40 1004 -4 6 299
1976211N28308 1976 81 NA NA ANNA 1976-08-02 21:00:00 ET 42.8026 -21.4202 main 981 981 P_____________ AL061976 42.8026 -21.4202 EX 37 -4 7 279
1976211N28308 1976 81 NA NA ANNA 1976-08-03 00:00:00 ET 42.8000 -21.9000 35 hurdat_atl main 1021 1021 O_____________ hurdat_atl AL061976 42.8000 -21.9000 EX 35 -4 7 267
1976211N28308 1976 81 NA NA ANNA 1976-08-03 03:00:00 ET 42.7723 -22.3501 main 1062 1062 P_____________ AL061976 42.7723 -22.3501 EX 35 -4 7 261
1976211N28308 1976 81 NA NA ANNA 1976-08-03 06:00:00 ET 42.7000 -22.8000 35 hurdat_atl main 1095 1095 O_____________ hurdat_atl AL061976 42.7000 -22.8000 EX 35 -4 7 258
1976211N28308 1976 81 NA NA ANNA 1976-08-03 09:00:00 ET 42.6370 -23.2266 main 1129 1129 P_____________ AL061976 42.6370 -23.2266 EX 32 -4 7 253
1976211N28308 1976 81 NA NA ANNA 1976-08-03 12:00:00 ET 42.5000 -23.7000 30 1006 hurdat_atl main 1171 1171 O_____________ hurdat_atl AL061976 42.5000 -23.7000 EX 30 1006 -4 9 243
1976211N28308 1976 81 NA NA ANNA 1976-08-03 15:00:00 ET 42.2377 -24.2930 main 1225 1225 P_____________ AL061976 42.2377 -24.2930 EX 30 -4 11 236
1976211N28308 1976 81 NA NA ANNA 1976-08-03 18:00:00 ET 41.9000 -24.9000 30 hurdat_atl main 1279 1279 O_____________ hurdat_atl AL061976 41.9000 -24.9000 EX 30 -4 11 231
1976211N28308 1976 81 NA NA ANNA 1976-08-03 21:00:00 ET 41.5648 -25.4295 main 1326 1326 P_____________ AL061976 41.5648 -25.4295 EX 30 -4 10 227
1976211N28308 1976 81 NA NA ANNA 1976-08-04 00:00:00 ET 41.2000 -25.9000 30 hurdat_atl main 1376 1376 O_____________ hurdat_atl AL061976 41.2000 -25.9000 EX 30 -4 10 222
1976211N28308 1976 81 NA NA ANNA 1976-08-04 03:00:00 ET 40.8147 -26.3143 main 1420 1420 P_____________ AL061976 40.8147 -26.3143 EX 30 -4 10 217
1976211N28308 1976 81 NA NA ANNA 1976-08-04 06:00:00 ET 40.4000 -26.7000 30 hurdat_atl main 1464 1464 O_____________ hurdat_atl AL061976 40.4000 -26.7000 EX 30 -4 10 216
1976211N28308 1976 81 NA NA ANNA 1976-08-04 09:00:00 ET 39.9650 -27.1148 main 1510 1510 P_____________ AL061976 39.9650 -27.1148 EX 30 -4 11 214
1976211N28308 1976 81 NA NA ANNA 1976-08-04 12:00:00 ET 39.5000 -27.5000 30 1008 hurdat_atl main 1547 1547 O_____________ hurdat_atl AL061976 39.5000 -27.5000 EX 30 1008 -4 12 210
1976211N28308 1976 81 NA NA ANNA 1976-08-04 15:00:00 ET 38.9700 -27.8604 main 1570 1543 P_____________ AL061976 38.9700 -27.8604 EX 30 -4 11 205
1976211N28308 1976 81 NA NA ANNA 1976-08-04 18:00:00 ET 38.5000 -28.1000 30 hurdat_atl main 1543 1526 O_____________ hurdat_atl AL061976 38.5000 -28.1000 EX 30 -4 8 198
1976211N28308 1976 81 NA NA ANNA 1976-08-04 21:00:00 ET 38.2123 -28.1745 main 1526 1505 P_____________ AL061976 38.2123 -28.1745 EX 30 -4 5 178
1976211N28308 1976 81 NA NA ANNA 1976-08-05 00:00:00 ET 38.0000 -28.1000 30 hurdat_atl main 1505 1469 O_____________ hurdat_atl AL061976 38.0000 -28.1000 EX 30 -4 5 158
1976211N28308 1976 81 NA NA ANNA 1976-08-05 03:00:00 ET 37.7201 -27.9296 main 1469 1441 P_____________ AL061976 37.7201 -27.9296 EX 30 -4 6 148
1976211N28308 1976 81 NA NA ANNA 1976-08-05 06:00:00 ET 37.5000 -27.7000 30 hurdat_atl main 1441 1421 O_____________ hurdat_atl AL061976 37.5000 -27.7000 EX 30 -4 5 133
1976211N28308 1976 81 NA NA ANNA 1976-08-05 09:00:00 ET 37.4124 -27.5152 main 1421 1408 P_____________ AL061976 37.4124 -27.5152 EX 27 -4 3 108
1976211N28308 1976 81 NA NA ANNA 1976-08-05 12:00:00 ET 37.4000 -27.3000 25 1012 hurdat_atl main 1408 1388 O_____________ hurdat_atl AL061976 37.4000 -27.3000 EX 25 1012 -4 4 94
1976211N28308 1976 81 NA NA ANNA 1976-08-05 15:00:00 ET 37.3851 -27.0000 main 1388 1370 P_____________ AL061976 37.3851 -27.0000 EX 25 -4 5 90
1976211N28308 1976 81 NA NA ANNA 1976-08-05 18:00:00 ET 37.4000 -26.7000 25 hurdat_atl main 1370 1357 O_____________ hurdat_atl AL061976 37.4000 -26.7000 EX 25 -4 4 82
1976211N28308 1976 81 NA NA ANNA 1976-08-05 21:00:00 ET 37.4422 -26.5075 main 1357 1353 P_____________ AL061976 37.4422 -26.5075 EX 25 -4 3 72
1976211N28308 1976 81 NA NA ANNA 1976-08-06 00:00:00 ET 37.5000 -26.3000 25 hurdat_atl main 1353 1335 O_____________ hurdat_atl AL061976 37.5000 -26.3000 EX 25 -4 4 78
1976211N28308 1976 81 NA NA ANNA 1976-08-06 03:00:00 ET 37.5352 -25.9574 main 1335 1320 P_____________ AL061976 37.5352 -25.9574 EX 25 -4 6 80
1976211N28308 1976 81 NA NA ANNA 1976-08-06 06:00:00 ET 37.6000 -25.6000 25 hurdat_atl main 1320 1311 O_____________ hurdat_atl AL061976 37.6000 -25.6000 EX 25 -4 5 68
1976211N28308 1976 81 NA NA ANNA 1976-08-06 09:00:00 ET 37.7348 -25.3350 main 1311 1311 P_____________ AL061976 37.7348 -25.3350 EX 25 -4 5 53
1976211N28308 1976 81 NA NA ANNA 1976-08-06 12:00:00 ET 37.9000 -25.1000 25 1015 hurdat_atl main 1318 1312 O_____________ hurdat_atl AL061976 37.9000 -25.1000 EX 25 1015 -4 5 50
1976211N28308 1976 81 NA NA ANNA 1976-08-06 15:00:00 ET 38.0552 -24.8552 main 1325 1310 P_____________ AL061976 38.0552 -24.8552 EX 25 -4 5 53
1976211N28308 1976 81 NA NA ANNA 1976-08-06 18:00:00 ET 38.2000 -24.6000 25 hurdat_atl main 1310 O_____________ hurdat_atl AL061976 38.2000 -24.6000 EX 25 -4 5 54

About IBTrACS Database

This database is a web-friendly format of International Best Track Archive for Climate Stewardship (IBTrACS), a global best track data archive curated by NOAA dating back to 1842.

Updated: 2021-11-26